sensor_id;sensor_type;location;lat;lon;timestamp;P1;durP1;ratioP1;P2;durP2;ratioP2
83747;SDS011;73737;52.364;17.120;2024-03-08T00:00:19;59.50;;;26.50;;
83747;SDS011;73737;52.364;17.120;2024-03-08T00:03:26;65.50;;;28.80;;
83747;SDS011;73737;52.364;17.120;2024-03-08T00:05:55;62.90;;;27.20;;
83747;SDS011;73737;52.364;17.120;2024-03-08T00:08:23;47.20;;;22.40;;
83747;SDS011;73737;52.364;17.120;2024-03-08T00:10:50;56.00;;;25.30;;
83747;SDS011;73737;52.364;17.120;2024-03-08T00:13:18;47.00;;;22.70;;
83747;SDS011;73737;52.364;17.120;2024-03-08T00:15:48;54.90;;;24.70;;
83747;SDS011;73737;52.364;17.120;2024-03-08T00:18:15;48.50;;;23.00;;
83747;SDS011;73737;52.364;17.120;2024-03-08T00:20:42;54.40;;;23.60;;
83747;SDS011;73737;52.364;17.120;2024-03-08T00:23:11;53.10;;;23.00;;
83747;SDS011;73737;52.364;17.120;2024-03-08T00:25:39;49.20;;;24.10;;
83747;SDS011;73737;52.364;17.120;2024-03-08T00:28:06;52.50;;;22.70;;
83747;SDS011;73737;52.364;17.120;2024-03-08T00:30:42;46.30;;;22.80;;
83747;SDS011;73737;52.364;17.120;2024-03-08T00:33:15;51.10;;;23.60;;
83747;SDS011;73737;52.364;17.120;2024-03-08T00:35:44;50.10;;;22.20;;
83747;SDS011;73737;52.364;17.120;2024-03-08T00:38:12;52.90;;;24.50;;
83747;SDS011;73737;52.364;17.120;2024-03-08T00:40:40;40.10;;;18.20;;
83747;SDS011;73737;52.364;17.120;2024-03-08T00:43:10;46.70;;;21.90;;
83747;SDS011;73737;52.364;17.120;2024-03-08T00:45:38;45.30;;;21.10;;
83747;SDS011;73737;52.364;17.120;2024-03-08T00:48:08;46.00;;;20.80;;
83747;SDS011;73737;52.364;17.120;2024-03-08T00:50:38;46.90;;;22.60;;
83747;SDS011;73737;52.364;17.120;2024-03-08T00:53:05;54.00;;;23.10;;
83747;SDS011;73737;52.364;17.120;2024-03-08T00:55:35;45.50;;;21.50;;
83747;SDS011;73737;52.364;17.120;2024-03-08T00:58:02;50.50;;;22.80;;
83747;SDS011;73737;52.364;17.120;2024-03-08T01:00:30;48.70;;;23.10;;
83747;SDS011;73737;52.364;17.120;2024-03-08T01:02:57;45.70;;;20.60;;
83747;SDS011;73737;52.364;17.120;2024-03-08T01:05:24;53.20;;;23.00;;
83747;SDS011;73737;52.364;17.120;2024-03-08T01:07:52;50.50;;;23.30;;
83747;SDS011;73737;52.364;17.120;2024-03-08T01:10:19;45.90;;;22.90;;
83747;SDS011;73737;52.364;17.120;2024-03-08T01:12:46;48.60;;;23.80;;
83747;SDS011;73737;52.364;17.120;2024-03-08T01:15:14;48.70;;;23.60;;
83747;SDS011;73737;52.364;17.120;2024-03-08T01:17:41;47.60;;;22.30;;
83747;SDS011;73737;52.364;17.120;2024-03-08T01:20:11;50.40;;;23.20;;
83747;SDS011;73737;52.364;17.120;2024-03-08T01:22:41;46.90;;;21.70;;
83747;SDS011;73737;52.364;17.120;2024-03-08T01:25:09;45.60;;;22.40;;
83747;SDS011;73737;52.364;17.120;2024-03-08T01:27:36;45.30;;;21.10;;
83747;SDS011;73737;52.364;17.120;2024-03-08T01:30:03;49.40;;;23.30;;
83747;SDS011;73737;52.364;17.120;2024-03-08T01:32:31;47.50;;;22.10;;
83747;SDS011;73737;52.364;17.120;2024-03-08T01:34:58;50.10;;;24.50;;
83747;SDS011;73737;52.364;17.120;2024-03-08T01:37:26;46.80;;;21.70;;
83747;SDS011;73737;52.364;17.120;2024-03-08T01:39:53;53.00;;;22.10;;
83747;SDS011;73737;52.364;17.120;2024-03-08T01:42:20;51.70;;;22.20;;
83747;SDS011;73737;52.364;17.120;2024-03-08T01:44:48;47.80;;;23.00;;
83747;SDS011;73737;52.364;17.120;2024-03-08T01:47:15;48.10;;;21.40;;
83747;SDS011;73737;52.364;17.120;2024-03-08T01:49:43;48.80;;;21.60;;
83747;SDS011;73737;52.364;17.120;2024-03-08T01:52:11;49.10;;;23.10;;
83747;SDS011;73737;52.364;17.120;2024-03-08T01:54:38;50.20;;;24.00;;
83747;SDS011;73737;52.364;17.120;2024-03-08T01:57:07;44.80;;;19.00;;
83747;SDS011;73737;52.364;17.120;2024-03-08T01:59:35;53.10;;;21.70;;
83747;SDS011;73737;52.364;17.120;2024-03-08T02:02:02;40.60;;;18.80;;
83747;SDS011;73737;52.364;17.120;2024-03-08T02:04:32;52.50;;;23.90;;
83747;SDS011;73737;52.364;17.120;2024-03-08T02:07:00;47.20;;;22.60;;
83747;SDS011;73737;52.364;17.120;2024-03-08T02:09:27;45.30;;;23.30;;
83747;SDS011;73737;52.364;17.120;2024-03-08T02:11:54;40.00;;;18.90;;
83747;SDS011;73737;52.364;17.120;2024-03-08T02:14:22;46.50;;;21.30;;
83747;SDS011;73737;52.364;17.120;2024-03-08T02:16:50;57.90;;;22.90;;
83747;SDS011;73737;52.364;17.120;2024-03-08T02:19:18;45.10;;;20.40;;
83747;SDS011;73737;52.364;17.120;2024-03-08T02:21:46;48.60;;;22.50;;
83747;SDS011;73737;52.364;17.120;2024-03-08T02:24:15;49.20;;;23.30;;
83747;SDS011;73737;52.364;17.120;2024-03-08T02:26:42;46.80;;;21.80;;
83747;SDS011;73737;52.364;17.120;2024-03-08T02:29:09;47.50;;;23.60;;
83747;SDS011;73737;52.364;17.120;2024-03-08T02:31:36;41.40;;;19.90;;
83747;SDS011;73737;52.364;17.120;2024-03-08T02:34:03;42.10;;;20.10;;
83747;SDS011;73737;52.364;17.120;2024-03-08T02:36:32;44.90;;;20.30;;
83747;SDS011;73737;52.364;17.120;2024-03-08T02:39:02;51.90;;;23.00;;
83747;SDS011;73737;52.364;17.120;2024-03-08T02:41:29;41.10;;;18.40;;
83747;SDS011;73737;52.364;17.120;2024-03-08T02:43:57;44.40;;;21.10;;
83747;SDS011;73737;52.364;17.120;2024-03-08T02:46:24;47.90;;;21.30;;
83747;SDS011;73737;52.364;17.120;2024-03-08T02:48:51;45.00;;;20.70;;
83747;SDS011;73737;52.364;17.120;2024-03-08T02:51:18;49.40;;;21.40;;
83747;SDS011;73737;52.364;17.120;2024-03-08T02:53:46;45.70;;;20.50;;
83747;SDS011;73737;52.364;17.120;2024-03-08T02:56:15;44.20;;;22.70;;
83747;SDS011;73737;52.364;17.120;2024-03-08T02:58:43;43.60;;;21.20;;
83747;SDS011;73737;52.364;17.120;2024-03-08T03:01:15;42.10;;;19.40;;
83747;SDS011;73737;52.364;17.120;2024-03-08T03:03:42;41.90;;;20.50;;
83747;SDS011;73737;52.364;17.120;2024-03-08T03:06:09;49.60;;;20.60;;
83747;SDS011;73737;52.364;17.120;2024-03-08T03:08:37;46.20;;;22.10;;
83747;SDS011;73737;52.364;17.120;2024-03-08T03:11:05;43.60;;;20.70;;
83747;SDS011;73737;52.364;17.120;2024-03-08T03:13:34;46.90;;;21.90;;
83747;SDS011;73737;52.364;17.120;2024-03-08T03:18:28;45.90;;;20.40;;
83747;SDS011;73737;52.364;17.120;2024-03-08T03:20:59;41.00;;;18.80;;
83747;SDS011;73737;52.364;17.120;2024-03-08T03:23:26;42.70;;;20.20;;
83747;SDS011;73737;52.364;17.120;2024-03-08T03:25:54;39.60;;;18.60;;
83747;SDS011;73737;52.364;17.120;2024-03-08T03:28:24;44.20;;;19.80;;
83747;SDS011;73737;52.364;17.120;2024-03-08T03:30:51;48.10;;;20.70;;
83747;SDS011;73737;52.364;17.120;2024-03-08T03:33:19;42.40;;;19.50;;
83747;SDS011;73737;52.364;17.120;2024-03-08T03:35:47;46.80;;;20.90;;
83747;SDS011;73737;52.364;17.120;2024-03-08T03:38:14;42.80;;;21.60;;
83747;SDS011;73737;52.364;17.120;2024-03-08T03:40:42;41.70;;;19.80;;
83747;SDS011;73737;52.364;17.120;2024-03-08T03:43:12;44.80;;;19.30;;
83747;SDS011;73737;52.364;17.120;2024-03-08T03:45:39;44.20;;;20.80;;
83747;SDS011;73737;52.364;17.120;2024-03-08T03:48:08;43.70;;;19.40;;
83747;SDS011;73737;52.364;17.120;2024-03-08T03:50:36;41.70;;;18.90;;
83747;SDS011;73737;52.364;17.120;2024-03-08T03:53:03;47.00;;;19.90;;
83747;SDS011;73737;52.364;17.120;2024-03-08T03:55:31;45.50;;;19.50;;
83747;SDS011;73737;52.364;17.120;2024-03-08T03:57:59;44.70;;;20.70;;
83747;SDS011;73737;52.364;17.120;2024-03-08T04:00:28;47.70;;;21.30;;
83747;SDS011;73737;52.364;17.120;2024-03-08T04:02:55;39.70;;;17.90;;
83747;SDS011;73737;52.364;17.120;2024-03-08T04:05:25;40.50;;;19.40;;
83747;SDS011;73737;52.364;17.120;2024-03-08T04:07:53;47.40;;;22.60;;
83747;SDS011;73737;52.364;17.120;2024-03-08T04:10:20;43.00;;;18.50;;
83747;SDS011;73737;52.364;17.120;2024-03-08T04:12:47;41.40;;;19.30;;
83747;SDS011;73737;52.364;17.120;2024-03-08T04:15:15;41.30;;;19.00;;
83747;SDS011;73737;52.364;17.120;2024-03-08T04:17:42;44.10;;;20.80;;
83747;SDS011;73737;52.364;17.120;2024-03-08T04:20:09;42.20;;;21.10;;
83747;SDS011;73737;52.364;17.120;2024-03-08T04:22:37;49.60;;;22.00;;
83747;SDS011;73737;52.364;17.120;2024-03-08T04:25:05;43.80;;;22.20;;
83747;SDS011;73737;52.364;17.120;2024-03-08T04:27:33;40.80;;;20.90;;
83747;SDS011;73737;52.364;17.120;2024-03-08T04:30:01;41.10;;;19.70;;
83747;SDS011;73737;52.364;17.120;2024-03-08T04:32:34;37.40;;;18.10;;
83747;SDS011;73737;52.364;17.120;2024-03-08T04:35:01;48.10;;;21.00;;
83747;SDS011;73737;52.364;17.120;2024-03-08T04:37:30;47.70;;;21.50;;
83747;SDS011;73737;52.364;17.120;2024-03-08T04:39:57;44.90;;;21.30;;
83747;SDS011;73737;52.364;17.120;2024-03-08T04:42:25;49.20;;;21.60;;
83747;SDS011;73737;52.364;17.120;2024-03-08T04:44:56;49.00;;;22.10;;
83747;SDS011;73737;52.364;17.120;2024-03-08T04:47:24;41.70;;;20.30;;
83747;SDS011;73737;52.364;17.120;2024-03-08T04:49:51;50.20;;;22.90;;
83747;SDS011;73737;52.364;17.120;2024-03-08T04:52:18;44.60;;;20.70;;
83747;SDS011;73737;52.364;17.120;2024-03-08T04:54:46;48.00;;;21.10;;
83747;SDS011;73737;52.364;17.120;2024-03-08T04:57:13;45.60;;;21.90;;
83747;SDS011;73737;52.364;17.120;2024-03-08T04:59:40;55.10;;;21.80;;
83747;SDS011;73737;52.364;17.120;2024-03-08T05:02:08;50.30;;;21.90;;
83747;SDS011;73737;52.364;17.120;2024-03-08T05:04:35;44.80;;;20.90;;
83747;SDS011;73737;52.364;17.120;2024-03-08T05:07:02;50.80;;;21.00;;
83747;SDS011;73737;52.364;17.120;2024-03-08T05:09:30;52.10;;;21.50;;
83747;SDS011;73737;52.364;17.120;2024-03-08T05:11:58;41.60;;;19.20;;
83747;SDS011;73737;52.364;17.120;2024-03-08T05:14:26;45.80;;;20.50;;
83747;SDS011;73737;52.364;17.120;2024-03-08T05:16:54;51.80;;;21.70;;
83747;SDS011;73737;52.364;17.120;2024-03-08T05:19:21;51.70;;;22.50;;
83747;SDS011;73737;52.364;17.120;2024-03-08T05:21:49;46.20;;;21.00;;
83747;SDS011;73737;52.364;17.120;2024-03-08T05:24:17;49.60;;;20.80;;
83747;SDS011;73737;52.364;17.120;2024-03-08T05:26:44;47.70;;;22.00;;
83747;SDS011;73737;52.364;17.120;2024-03-08T05:29:12;45.10;;;21.40;;
83747;SDS011;73737;52.364;17.120;2024-03-08T05:31:50;51.20;;;22.20;;
83747;SDS011;73737;52.364;17.120;2024-03-08T05:34:21;45.90;;;20.60;;
83747;SDS011;73737;52.364;17.120;2024-03-08T05:36:49;45.30;;;22.80;;
83747;SDS011;73737;52.364;17.120;2024-03-08T05:39:17;53.40;;;25.30;;
83747;SDS011;73737;52.364;17.120;2024-03-08T05:41:45;48.10;;;22.60;;
83747;SDS011;73737;52.364;17.120;2024-03-08T05:44:15;48.00;;;23.50;;
83747;SDS011;73737;52.364;17.120;2024-03-08T05:46:44;49.50;;;22.90;;
83747;SDS011;73737;52.364;17.120;2024-03-08T05:49:13;50.50;;;24.10;;
83747;SDS011;73737;52.364;17.120;2024-03-08T05:51:40;48.50;;;22.80;;
83747;SDS011;73737;52.364;17.120;2024-03-08T05:54:09;46.50;;;22.50;;
83747;SDS011;73737;52.364;17.120;2024-03-08T05:56:37;50.80;;;22.80;;
83747;SDS011;73737;52.364;17.120;2024-03-08T05:59:05;53.00;;;24.20;;
83747;SDS011;73737;52.364;17.120;2024-03-08T06:01:32;54.80;;;23.70;;
83747;SDS011;73737;52.364;17.120;2024-03-08T06:04:03;46.40;;;22.40;;
83747;SDS011;73737;52.364;17.120;2024-03-08T06:06:30;52.50;;;23.50;;
83747;SDS011;73737;52.364;17.120;2024-03-08T06:08:58;50.10;;;23.30;;
83747;SDS011;73737;52.364;17.120;2024-03-08T06:11:25;53.00;;;23.30;;
83747;SDS011;73737;52.364;17.120;2024-03-08T06:13:59;58.80;;;24.60;;
83747;SDS011;73737;52.364;17.120;2024-03-08T06:16:30;48.60;;;24.00;;
83747;SDS011;73737;52.364;17.120;2024-03-08T06:18:58;48.20;;;24.40;;
83747;SDS011;73737;52.364;17.120;2024-03-08T06:21:25;59.50;;;27.40;;
83747;SDS011;73737;52.364;17.120;2024-03-08T06:23:53;59.00;;;30.40;;
83747;SDS011;73737;52.364;17.120;2024-03-08T06:26:24;58.20;;;26.90;;
83747;SDS011;73737;52.364;17.120;2024-03-08T06:28:52;62.70;;;28.60;;
83747;SDS011;73737;52.364;17.120;2024-03-08T06:31:19;58.90;;;26.10;;
83747;SDS011;73737;52.364;17.120;2024-03-08T06:33:46;63.20;;;27.80;;
83747;SDS011;73737;52.364;17.120;2024-03-08T06:36:16;61.80;;;28.20;;
83747;SDS011;73737;52.364;17.120;2024-03-08T06:38:48;55.60;;;27.20;;
83747;SDS011;73737;52.364;17.120;2024-03-08T06:41:17;53.70;;;25.50;;
83747;SDS011;73737;52.364;17.120;2024-03-08T06:43:45;56.40;;;27.00;;
83747;SDS011;73737;52.364;17.120;2024-03-08T06:46:15;58.10;;;26.00;;
83747;SDS011;73737;52.364;17.120;2024-03-08T06:48:42;59.30;;;31.00;;
83747;SDS011;73737;52.364;17.120;2024-03-08T06:51:10;54.10;;;25.40;;
83747;SDS011;73737;52.364;17.120;2024-03-08T06:53:37;61.50;;;29.00;;
83747;SDS011;73737;52.364;17.120;2024-03-08T06:58:38;54.70;;;25.20;;
83747;SDS011;73737;52.364;17.120;2024-03-08T07:01:05;62.50;;;27.30;;
83747;SDS011;73737;52.364;17.120;2024-03-08T07:03:34;58.50;;;27.90;;
83747;SDS011;73737;52.364;17.120;2024-03-08T07:06:01;47.30;;;23.90;;
83747;SDS011;73737;52.364;17.120;2024-03-08T07:08:29;44.70;;;24.80;;
83747;SDS011;73737;52.364;17.120;2024-03-08T07:10:56;54.70;;;26.30;;
83747;SDS011;73737;52.364;17.120;2024-03-08T07:13:25;53.40;;;26.10;;
83747;SDS011;73737;52.364;17.120;2024-03-08T07:15:52;54.60;;;25.80;;
83747;SDS011;73737;52.364;17.120;2024-03-08T07:18:19;48.00;;;24.60;;
83747;SDS011;73737;52.364;17.120;2024-03-08T07:20:46;52.70;;;27.10;;
83747;SDS011;73737;52.364;17.120;2024-03-08T07:23:13;55.00;;;27.40;;
83747;SDS011;73737;52.364;17.120;2024-03-08T07:26:01;53.40;;;30.60;;
83747;SDS011;73737;52.364;17.120;2024-03-08T07:28:28;55.00;;;29.40;;
83747;SDS011;73737;52.364;17.120;2024-03-08T07:30:59;53.30;;;29.40;;
83747;SDS011;73737;52.364;17.120;2024-03-08T07:33:39;49.70;;;26.90;;
83747;SDS011;73737;52.364;17.120;2024-03-08T07:36:06;55.10;;;27.20;;
83747;SDS011;73737;52.364;17.120;2024-03-08T07:38:33;45.20;;;24.50;;
83747;SDS011;73737;52.364;17.120;2024-03-08T07:41:00;48.90;;;24.50;;
83747;SDS011;73737;52.364;17.120;2024-03-08T07:43:27;48.90;;;25.20;;
83747;SDS011;73737;52.364;17.120;2024-03-08T07:45:54;52.20;;;28.20;;
83747;SDS011;73737;52.364;17.120;2024-03-08T07:48:21;53.30;;;26.30;;
83747;SDS011;73737;52.364;17.120;2024-03-08T07:50:49;54.50;;;27.40;;
83747;SDS011;73737;52.364;17.120;2024-03-08T07:53:16;49.50;;;26.50;;
83747;SDS011;73737;52.364;17.120;2024-03-08T07:55:43;47.90;;;25.60;;
83747;SDS011;73737;52.364;17.120;2024-03-08T07:58:11;48.30;;;26.50;;
83747;SDS011;73737;52.364;17.120;2024-03-08T08:00:40;49.70;;;26.30;;
83747;SDS011;73737;52.364;17.120;2024-03-08T08:03:09;49.50;;;26.70;;
83747;SDS011;73737;52.364;17.120;2024-03-08T08:05:38;46.90;;;25.20;;
83747;SDS011;73737;52.364;17.120;2024-03-08T08:08:07;46.30;;;21.90;;
83747;SDS011;73737;52.364;17.120;2024-03-08T08:10:35;43.10;;;24.00;;
83747;SDS011;73737;52.364;17.120;2024-03-08T08:13:04;39.40;;;21.40;;
83747;SDS011;73737;52.364;17.120;2024-03-08T08:15:34;37.30;;;19.90;;
83747;SDS011;73737;52.364;17.120;2024-03-08T08:18:01;37.90;;;20.60;;
83747;SDS011;73737;52.364;17.120;2024-03-08T08:20:32;37.80;;;20.40;;
83747;SDS011;73737;52.364;17.120;2024-03-08T08:22:59;31.90;;;17.50;;
83747;SDS011;73737;52.364;17.120;2024-03-08T08:25:27;31.90;;;16.60;;
83747;SDS011;73737;52.364;17.120;2024-03-08T08:27:55;32.10;;;17.80;;
83747;SDS011;73737;52.364;17.120;2024-03-08T08:30:22;30.80;;;17.80;;
83747;SDS011;73737;52.364;17.120;2024-03-08T08:32:50;29.00;;;18.80;;
83747;SDS011;73737;52.364;17.120;2024-03-08T08:35:17;27.10;;;16.10;;
83747;SDS011;73737;52.364;17.120;2024-03-08T08:37:46;30.70;;;16.90;;
83747;SDS011;73737;52.364;17.120;2024-03-08T08:40:14;27.30;;;15.50;;
83747;SDS011;73737;52.364;17.120;2024-03-08T08:42:41;29.90;;;17.40;;
83747;SDS011;73737;52.364;17.120;2024-03-08T08:45:09;28.90;;;15.60;;
83747;SDS011;73737;52.364;17.120;2024-03-08T08:47:37;26.30;;;16.40;;
83747;SDS011;73737;52.364;17.120;2024-03-08T08:50:05;38.30;;;19.70;;
83747;SDS011;73737;52.364;17.120;2024-03-08T08:52:33;34.30;;;19.20;;
83747;SDS011;73737;52.364;17.120;2024-03-08T08:55:01;34.20;;;18.70;;
83747;SDS011;73737;52.364;17.120;2024-03-08T08:57:31;31.90;;;18.20;;
83747;SDS011;73737;52.364;17.120;2024-03-08T08:59:59;31.70;;;16.80;;
83747;SDS011;73737;52.364;17.120;2024-03-08T09:02:27;27.80;;;16.50;;
83747;SDS011;73737;52.364;17.120;2024-03-08T09:04:54;24.00;;;14.50;;
83747;SDS011;73737;52.364;17.120;2024-03-08T09:07:23;26.40;;;14.80;;
83747;SDS011;73737;52.364;17.120;2024-03-08T09:09:51;28.00;;;16.00;;
83747;SDS011;73737;52.364;17.120;2024-03-08T09:12:19;23.30;;;12.70;;
83747;SDS011;73737;52.364;17.120;2024-03-08T09:14:46;23.30;;;15.00;;
83747;SDS011;73737;52.364;17.120;2024-03-08T09:17:15;23.20;;;15.30;;
83747;SDS011;73737;52.364;17.120;2024-03-08T09:19:48;24.20;;;14.70;;
83747;SDS011;73737;52.364;17.120;2024-03-08T09:22:15;19.00;;;12.30;;
83747;SDS011;73737;52.364;17.120;2024-03-08T09:24:42;20.30;;;13.60;;
83747;SDS011;73737;52.364;17.120;2024-03-08T09:27:11;18.90;;;12.80;;
83747;SDS011;73737;52.364;17.120;2024-03-08T09:29:38;17.20;;;11.70;;
83747;SDS011;73737;52.364;17.120;2024-03-08T09:32:06;16.60;;;11.30;;
83747;SDS011;73737;52.364;17.120;2024-03-08T09:34:37;19.50;;;13.10;;
83747;SDS011;73737;52.364;17.120;2024-03-08T09:37:05;14.10;;;10.20;;
83747;SDS011;73737;52.364;17.120;2024-03-08T09:39:33;20.80;;;13.20;;
83747;SDS011;73737;52.364;17.120;2024-03-08T09:42:06;16.50;;;11.80;;
83747;SDS011;73737;52.364;17.120;2024-03-08T09:44:33;17.20;;;12.70;;
83747;SDS011;73737;52.364;17.120;2024-03-08T09:47:01;15.00;;;10.60;;
83747;SDS011;73737;52.364;17.120;2024-03-08T09:49:33;17.50;;;11.80;;
83747;SDS011;73737;52.364;17.120;2024-03-08T09:52:02;16.40;;;12.90;;
83747;SDS011;73737;52.364;17.120;2024-03-08T09:54:34;18.90;;;13.90;;
83747;SDS011;73737;52.364;17.120;2024-03-08T09:57:04;18.80;;;13.50;;
83747;SDS011;73737;52.364;17.120;2024-03-08T09:59:31;17.30;;;14.00;;
83747;SDS011;73737;52.364;17.120;2024-03-08T10:02:04;16.10;;;12.90;;
83747;SDS011;73737;52.364;17.120;2024-03-08T10:04:31;17.90;;;13.80;;
83747;SDS011;73737;52.364;17.120;2024-03-08T10:07:00;18.50;;;12.90;;
83747;SDS011;73737;52.364;17.120;2024-03-08T10:09:31;15.80;;;12.30;;
83747;SDS011;73737;52.364;17.120;2024-03-08T10:11:59;17.20;;;12.70;;
83747;SDS011;73737;52.364;17.120;2024-03-08T10:14:45;13.00;;;10.10;;
83747;SDS011;73737;52.364;17.120;2024-03-08T10:17:19;14.00;;;10.40;;
83747;SDS011;73737;52.364;17.120;2024-03-08T10:19:51;16.80;;;10.80;;
83747;SDS011;73737;52.364;17.120;2024-03-08T10:22:20;13.80;;;10.80;;
83747;SDS011;73737;52.364;17.120;2024-03-08T10:24:50;15.40;;;11.70;;
83747;SDS011;73737;52.364;17.120;2024-03-08T10:27:21;13.50;;;11.10;;
83747;SDS011;73737;52.364;17.120;2024-03-08T10:30:00;16.00;;;11.40;;
83747;SDS011;73737;52.364;17.120;2024-03-08T10:32:32;17.20;;;11.30;;
83747;SDS011;73737;52.364;17.120;2024-03-08T10:35:00;14.20;;;11.40;;
83747;SDS011;73737;52.364;17.120;2024-03-08T10:37:28;17.90;;;12.60;;
83747;SDS011;73737;52.364;17.120;2024-03-08T10:40:53;14.70;;;11.70;;
83747;SDS011;73737;52.364;17.120;2024-03-08T10:46:12;13.40;;;9.80;;
83747;SDS011;73737;52.364;17.120;2024-03-08T10:49:17;11.70;;;9.50;;
83747;SDS011;73737;52.364;17.120;2024-03-08T10:51:46;13.00;;;10.00;;
83747;SDS011;73737;52.364;17.120;2024-03-08T11:06:01;14.30;;;10.00;;
83747;SDS011;73737;52.364;17.120;2024-03-08T11:08:39;11.90;;;9.90;;
83747;SDS011;73737;52.364;17.120;2024-03-08T11:11:23;12.70;;;10.40;;
83747;SDS011;73737;52.364;17.120;2024-03-08T11:17:25;12.40;;;10.10;;
83747;SDS011;73737;52.364;17.120;2024-03-08T11:20:18;12.30;;;10.40;;
83747;SDS011;73737;52.364;17.120;2024-03-08T11:22:53;12.90;;;10.50;;
83747;SDS011;73737;52.364;17.120;2024-03-08T11:26:22;12.80;;;10.20;;
83747;SDS011;73737;52.364;17.120;2024-03-08T11:33:10;13.30;;;11.50;;
83747;SDS011;73737;52.364;17.120;2024-03-08T11:36:11;13.20;;;11.30;;
83747;SDS011;73737;52.364;17.120;2024-03-08T11:39:06;14.40;;;11.00;;
83747;SDS011;73737;52.364;17.120;2024-03-08T11:42:18;16.20;;;12.10;;
83747;SDS011;73737;52.364;17.120;2024-03-08T11:45:07;13.10;;;10.70;;
83747;SDS011;73737;52.364;17.120;2024-03-08T11:47:42;13.20;;;11.60;;
83747;SDS011;73737;52.364;17.120;2024-03-08T11:50:19;16.40;;;12.70;;
83747;SDS011;73737;52.364;17.120;2024-03-08T11:53:05;16.70;;;13.20;;
83747;SDS011;73737;52.364;17.120;2024-03-08T11:55:42;14.70;;;12.00;;
83747;SDS011;73737;52.364;17.120;2024-03-08T11:58:22;16.00;;;11.80;;
83747;SDS011;73737;52.364;17.120;2024-03-08T12:01:18;14.10;;;11.60;;
83747;SDS011;73737;52.364;17.120;2024-03-08T12:04:25;13.70;;;11.20;;
83747;SDS011;73737;52.364;17.120;2024-03-08T12:07:20;13.70;;;10.30;;
83747;SDS011;73737;52.364;17.120;2024-03-08T12:12:54;16.80;;;11.90;;
83747;SDS011;73737;52.364;17.120;2024-03-08T12:15:31;15.60;;;12.30;;
83747;SDS011;73737;52.364;17.120;2024-03-08T12:18:04;15.20;;;11.70;;
83747;SDS011;73737;52.364;17.120;2024-03-08T12:20:39;16.00;;;11.30;;
83747;SDS011;73737;52.364;17.120;2024-03-08T12:23:18;13.00;;;10.10;;
83747;SDS011;73737;52.364;17.120;2024-03-08T12:25:47;13.30;;;10.50;;
83747;SDS011;73737;52.364;17.120;2024-03-08T12:28:16;14.90;;;11.60;;
83747;SDS011;73737;52.364;17.120;2024-03-08T12:30:49;13.70;;;10.40;;
83747;SDS011;73737;52.364;17.120;2024-03-08T12:33:25;12.80;;;11.10;;
83747;SDS011;73737;52.364;17.120;2024-03-08T12:35:55;13.00;;;10.30;;
83747;SDS011;73737;52.364;17.120;2024-03-08T12:38:32;14.30;;;11.00;;
83747;SDS011;73737;52.364;17.120;2024-03-08T12:41:02;13.60;;;10.80;;
83747;SDS011;73737;52.364;17.120;2024-03-08T12:43:31;14.20;;;12.10;;
83747;SDS011;73737;52.364;17.120;2024-03-08T12:46:02;14.00;;;10.80;;
83747;SDS011;73737;52.364;17.120;2024-03-08T12:48:36;15.20;;;11.40;;
83747;SDS011;73737;52.364;17.120;2024-03-08T12:51:10;12.70;;;10.30;;
83747;SDS011;73737;52.364;17.120;2024-03-08T12:53:39;13.80;;;10.10;;
83747;SDS011;73737;52.364;17.120;2024-03-08T12:56:29;14.20;;;10.60;;
83747;SDS011;73737;52.364;17.120;2024-03-08T12:59:02;13.70;;;9.30;;
83747;SDS011;73737;52.364;17.120;2024-03-08T13:01:39;12.20;;;10.00;;
83747;SDS011;73737;52.364;17.120;2024-03-08T13:04:16;14.60;;;11.20;;
83747;SDS011;73737;52.364;17.120;2024-03-08T13:06:47;11.70;;;10.00;;
83747;SDS011;73737;52.364;17.120;2024-03-08T13:09:33;14.50;;;11.10;;
83747;SDS011;73737;52.364;17.120;2024-03-08T13:12:09;12.10;;;10.70;;
83747;SDS011;73737;52.364;17.120;2024-03-08T13:14:40;16.10;;;11.10;;
83747;SDS011;73737;52.364;17.120;2024-03-08T13:17:11;15.10;;;10.60;;
83747;SDS011;73737;52.364;17.120;2024-03-08T13:19:44;14.30;;;11.20;;
83747;SDS011;73737;52.364;17.120;2024-03-08T13:22:15;14.00;;;10.60;;
83747;SDS011;73737;52.364;17.120;2024-03-08T13:24:45;14.00;;;11.20;;
83747;SDS011;73737;52.364;17.120;2024-03-08T13:29:55;13.60;;;10.60;;
83747;SDS011;73737;52.364;17.120;2024-03-08T13:32:27;12.10;;;9.60;;
83747;SDS011;73737;52.364;17.120;2024-03-08T13:35:00;13.20;;;10.70;;
83747;SDS011;73737;52.364;17.120;2024-03-08T13:37:29;13.00;;;10.40;;
83747;SDS011;73737;52.364;17.120;2024-03-08T13:39:58;12.20;;;10.70;;
83747;SDS011;73737;52.364;17.120;2024-03-08T13:42:31;13.90;;;9.90;;
83747;SDS011;73737;52.364;17.120;2024-03-08T13:45:01;16.50;;;12.10;;
83747;SDS011;73737;52.364;17.120;2024-03-08T13:47:30;16.50;;;13.10;;
83747;SDS011;73737;52.364;17.120;2024-03-08T13:50:00;12.00;;;9.30;;
83747;SDS011;73737;52.364;17.120;2024-03-08T13:52:59;14.70;;;11.40;;
83747;SDS011;73737;52.364;17.120;2024-03-08T13:55:35;13.10;;;10.90;;
83747;SDS011;73737;52.364;17.120;2024-03-08T13:58:06;13.00;;;9.70;;
83747;SDS011;73737;52.364;17.120;2024-03-08T14:00:39;12.30;;;9.60;;
83747;SDS011;73737;52.364;17.120;2024-03-08T14:03:12;14.90;;;11.30;;
83747;SDS011;73737;52.364;17.120;2024-03-08T14:05:43;13.80;;;10.90;;
83747;SDS011;73737;52.364;17.120;2024-03-08T14:08:15;11.80;;;9.40;;
83747;SDS011;73737;52.364;17.120;2024-03-08T14:10:45;13.50;;;10.50;;
83747;SDS011;73737;52.364;17.120;2024-03-08T14:13:17;13.90;;;10.60;;
83747;SDS011;73737;52.364;17.120;2024-03-08T14:15:48;14.70;;;11.60;;
83747;SDS011;73737;52.364;17.120;2024-03-08T14:18:25;15.50;;;10.80;;
83747;SDS011;73737;52.364;17.120;2024-03-08T14:20:57;14.90;;;10.60;;
83747;SDS011;73737;52.364;17.120;2024-03-08T14:23:30;12.70;;;10.10;;
83747;SDS011;73737;52.364;17.120;2024-03-08T14:26:04;15.00;;;10.60;;
83747;SDS011;73737;52.364;17.120;2024-03-08T14:28:36;15.00;;;10.60;;
83747;SDS011;73737;52.364;17.120;2024-03-08T14:31:09;13.40;;;10.50;;
83747;SDS011;73737;52.364;17.120;2024-03-08T14:33:41;13.60;;;9.90;;
83747;SDS011;73737;52.364;17.120;2024-03-08T14:36:16;20.40;;;11.00;;
83747;SDS011;73737;52.364;17.120;2024-03-08T14:38:46;12.80;;;10.10;;
83747;SDS011;73737;52.364;17.120;2024-03-08T14:41:16;13.40;;;10.30;;
83747;SDS011;73737;52.364;17.120;2024-03-08T14:43:45;15.10;;;10.50;;
83747;SDS011;73737;52.364;17.120;2024-03-08T14:46:15;16.50;;;11.40;;
83747;SDS011;73737;52.364;17.120;2024-03-08T14:48:50;14.20;;;11.00;;
83747;SDS011;73737;52.364;17.120;2024-03-08T14:51:23;17.40;;;12.50;;
83747;SDS011;73737;52.364;17.120;2024-03-08T14:53:55;13.90;;;10.40;;
83747;SDS011;73737;52.364;17.120;2024-03-08T14:56:25;15.40;;;11.60;;
83747;SDS011;73737;52.364;17.120;2024-03-08T14:58:55;14.90;;;9.90;;
83747;SDS011;73737;52.364;17.120;2024-03-08T15:01:31;14.80;;;10.20;;